createdAt,value
2023-01-05T00:01:32.749Z,29.95
2023-01-05T00:03:59.733Z,30.30
2023-01-05T00:06:26.723Z,34.75
2023-01-05T00:08:53.781Z,33.50
2023-01-05T00:11:42.096Z,31.88
2023-01-05T00:14:35.927Z,33.20
2023-01-05T00:17:21.761Z,27.88
2023-01-05T00:22:39.500Z,29.02
2023-01-05T00:25:28.478Z,30.92
2023-01-05T00:27:58.109Z,30.23
2023-01-05T00:30:29.231Z,27.63
2023-01-05T00:32:56.271Z,32.40
2023-01-05T00:35:24.207Z,32.00
2023-01-05T00:37:51.859Z,29.67
2023-01-05T00:40:22.317Z,32.70
2023-01-05T00:42:49.585Z,33.72
2023-01-05T00:45:18.904Z,29.15
2023-01-05T00:47:46.124Z,28.52
2023-01-05T00:50:17.529Z,30.65
2023-01-05T00:52:44.809Z,29.45
2023-01-05T00:55:12.111Z,33.17
2023-01-05T00:57:39.210Z,36.83
2023-01-05T01:00:08.923Z,32.05
2023-01-05T01:02:36.334Z,35.15
2023-01-05T01:05:03.358Z,31.50
2023-01-05T01:07:30.740Z,33.35
2023-01-05T01:09:57.716Z,30.27
2023-01-05T01:12:24.605Z,33.47
2023-01-05T01:14:51.614Z,30.38
2023-01-05T01:17:18.667Z,25.80
2023-01-05T01:19:46.941Z,31.73
2023-01-05T01:22:14.804Z,31.13
2023-01-05T01:24:41.903Z,27.30
2023-01-05T01:27:08.871Z,27.25
2023-01-05T01:29:35.833Z,28.55
2023-01-05T01:32:03.005Z,29.45
2023-01-05T01:34:29.964Z,29.02
2023-01-05T01:36:57.152Z,25.33
2023-01-05T01:39:28.631Z,26.02
2023-01-05T01:42:01.173Z,22.17
2023-01-05T01:45:00.336Z,28.13
2023-01-05T01:47:38.516Z,26.13
2023-01-05T01:50:20.336Z,29.77
2023-01-05T01:52:51.115Z,24.55
2023-01-05T01:55:19.772Z,29.48
2023-01-05T01:57:49.779Z,28.13
2023-01-05T02:00:18.948Z,25.02
2023-01-05T02:02:48.904Z,26.80
2023-01-05T02:05:24.530Z,27.30
2023-01-05T02:07:51.442Z,23.77
2023-01-05T02:10:30.741Z,22.65
2023-01-05T02:13:19.156Z,23.58
2023-01-05T02:16:06.559Z,35.72
2023-01-05T02:18:59.915Z,30.40
2023-01-05T02:21:37.044Z,21.77
2023-01-05T02:24:20.382Z,23.85
2023-01-05T02:26:53.308Z,27.50
2023-01-05T02:29:38.404Z,28.17
2023-01-05T02:32:05.259Z,25.30
2023-01-05T02:35:10.312Z,26.98
2023-01-05T02:37:46.102Z,29.38
2023-01-05T02:40:22.463Z,25.27
2023-01-05T02:42:52.379Z,30.35
2023-01-05T02:45:23.261Z,26.35
2023-01-05T02:47:54.965Z,27.38
2023-01-05T02:50:31.929Z,31.83
2023-01-05T02:53:09.895Z,40.15
2023-01-05T02:56:00.757Z,45.55
2023-01-05T02:58:41.292Z,36.63
2023-01-05T03:01:17.902Z,41.85
2023-01-05T03:04:06.402Z,38.25
2023-01-05T03:06:47.532Z,48.15
2023-01-05T03:09:26.068Z,34.78
2023-01-05T03:12:23.326Z,34.10
2023-01-05T03:14:55.939Z,37.78
2023-01-05T03:17:32.881Z,46.30
2023-01-05T03:20:01.187Z,36.90
2023-01-05T03:22:50.109Z,40.42
2023-01-05T03:25:39.764Z,43.92
2023-01-05T03:28:33.103Z,48.28
2023-01-05T03:31:28.863Z,44.00
2023-01-05T03:34:25.960Z,47.97
2023-01-05T03:36:59.010Z,40.80
2023-01-05T03:39:27.945Z,49.08
2023-01-05T03:41:59.409Z,48.58
2023-01-05T03:44:27.493Z,50.40
2023-01-05T03:46:55.304Z,49.20
2023-01-05T03:49:22.288Z,50.05
2023-01-05T03:51:50.878Z,55.22
2023-01-05T03:54:18.590Z,49.13
2023-01-05T03:56:47.173Z,50.15
2023-01-05T03:59:14.553Z,55.65
2023-01-05T04:01:43.210Z,47.28
2023-01-05T04:04:13.574Z,44.85
2023-01-05T04:06:40.796Z,51.10
2023-01-05T04:09:09.328Z,42.72
2023-01-05T04:11:38.145Z,40.88
2023-01-05T04:14:07.334Z,41.38
2023-01-05T04:16:35.593Z,49.53
2023-01-05T04:19:12.005Z,41.47
2023-01-05T04:21:39.234Z,44.90
2023-01-05T04:24:06.758Z,47.35
2023-01-05T04:26:38.081Z,41.60
2023-01-05T04:29:06.071Z,42.65
2023-01-05T04:31:34.085Z,39.75
2023-01-05T04:34:01.268Z,46.88
2023-01-05T04:36:28.302Z,42.50
2023-01-05T04:38:57.412Z,39.88
2023-01-05T04:41:24.679Z,43.72
2023-01-05T04:43:53.559Z,47.55
2023-01-05T04:46:20.960Z,50.60
2023-01-05T04:48:50.249Z,48.28
2023-01-05T04:51:20.016Z,46.58
2023-01-05T04:53:47.184Z,55.53
2023-01-05T04:56:17.820Z,50.17
2023-01-05T04:58:46.741Z,43.28
2023-01-05T05:01:13.656Z,60.92
2023-01-05T05:03:42.524Z,50.58
2023-01-05T05:06:13.909Z,51.22
2023-01-05T05:08:40.826Z,54.38
2023-01-05T05:11:09.403Z,48.60
2023-01-05T05:13:39.076Z,48.28
2023-01-05T05:16:06.726Z,55.08
2023-01-05T05:18:34.668Z,50.55
2023-01-05T05:21:03.156Z,55.33
2023-01-05T05:23:33.564Z,53.97
2023-01-05T05:26:00.745Z,50.72
2023-01-05T05:28:30.366Z,55.45
2023-01-05T05:30:57.927Z,55.58
2023-01-05T05:33:25.622Z,54.22
2023-01-05T05:35:52.992Z,56.33
2023-01-05T05:38:20.210Z,62.22
2023-01-05T05:40:49.341Z,58.30
2023-01-05T05:43:16.395Z,58.40
2023-01-05T05:45:49.662Z,62.03
2023-01-05T05:48:18.417Z,58.53
2023-01-05T05:50:46.078Z,57.17
2023-01-05T05:53:13.199Z,57.58
2023-01-05T05:55:40.066Z,56.15
2023-01-05T05:58:07.181Z,66.40
2023-01-05T06:00:34.098Z,52.92
2023-01-05T06:03:01.124Z,57.47
2023-01-05T06:05:28.231Z,57.03
2023-01-05T06:07:55.217Z,60.38
2023-01-05T06:10:22.161Z,55.17
2023-01-05T06:12:49.142Z,56.08
2023-01-05T06:15:16.019Z,54.08
2023-01-05T06:17:42.946Z,62.28
2023-01-05T06:20:10.118Z,59.92
2023-01-05T06:22:37.289Z,59.42
2023-01-05T06:25:05.142Z,56.40
2023-01-05T06:27:32.052Z,60.17
2023-01-05T06:29:58.935Z,53.92
2023-01-05T06:32:25.858Z,55.95
2023-01-05T06:34:52.801Z,50.20
2023-01-05T06:37:19.818Z,50.83
2023-01-05T06:39:46.681Z,53.55
2023-01-05T06:42:13.618Z,43.78
2023-01-05T06:44:40.521Z,47.80
2023-01-05T06:47:07.374Z,44.40
2023-01-05T06:49:34.421Z,43.25
2023-01-05T06:52:01.276Z,46.50
2023-01-05T06:54:28.174Z,51.47
2023-01-05T06:56:55.024Z,49.97
2023-01-05T06:59:21.910Z,43.35
2023-01-05T07:01:48.856Z,43.58
2023-01-05T07:04:15.931Z,52.53
2023-01-05T07:06:43.118Z,49.55
2023-01-05T07:09:10.051Z,46.97
2023-01-05T07:11:36.907Z,49.55
2023-01-05T07:14:03.843Z,47.03
2023-01-05T07:16:30.741Z,48.42
2023-01-05T07:18:57.686Z,47.13
2023-01-05T07:21:24.778Z,42.33
2023-01-05T07:23:51.785Z,48.30
2023-01-05T07:26:18.781Z,42.28
2023-01-05T07:28:45.655Z,41.97
2023-01-05T07:31:13.651Z,38.80
2023-01-05T07:33:40.575Z,41.00
2023-01-05T07:36:08.102Z,32.80
2023-01-05T07:38:35.040Z,37.65
2023-01-05T07:41:02.520Z,36.88
2023-01-05T07:43:29.496Z,32.78
2023-01-05T07:46:04.356Z,38.35
2023-01-05T07:48:31.523Z,41.13
2023-01-05T07:51:03.377Z,39.58
2023-01-05T07:53:31.388Z,43.85
2023-01-05T07:56:00.053Z,37.95
2023-01-05T07:58:28.277Z,30.73
2023-01-05T08:00:56.302Z,36.75
2023-01-05T08:03:23.681Z,31.58
2023-01-05T08:05:50.627Z,23.05
2023-01-05T08:08:23.917Z,22.73
2023-01-05T08:10:51.255Z,24.52
2023-01-05T08:13:36.892Z,16.80
2023-01-05T08:16:04.107Z,17.67
2023-01-05T08:18:31.162Z,22.83
2023-01-05T08:21:00.994Z,20.98
2023-01-05T08:23:28.515Z,18.85
2023-01-05T08:25:55.936Z,18.52
2023-01-05T08:28:31.449Z,19.25
2023-01-05T08:31:10.748Z,17.60
2023-01-05T08:33:37.859Z,18.95
2023-01-05T08:36:09.174Z,18.55
2023-01-05T08:38:36.470Z,21.67
2023-01-05T08:41:03.504Z,19.50
2023-01-05T08:43:30.568Z,21.00
2023-01-05T08:45:57.507Z,20.85
2023-01-05T08:48:24.373Z,22.17
2023-01-05T08:50:51.343Z,26.63
2023-01-05T08:53:18.278Z,22.60
2023-01-05T08:55:45.685Z,21.55
2023-01-05T08:58:12.702Z,22.35
2023-01-05T09:00:39.658Z,16.73
2023-01-05T09:03:06.692Z,20.60
2023-01-05T09:05:33.723Z,17.67
2023-01-05T09:08:00.696Z,24.13
2023-01-05T09:10:27.569Z,18.23
2023-01-05T09:12:54.420Z,18.33
2023-01-05T09:15:21.336Z,22.77
2023-01-05T09:17:48.312Z,23.40
2023-01-05T09:20:15.272Z,23.25
2023-01-05T09:22:42.255Z,23.52
2023-01-05T09:25:10.220Z,19.65
2023-01-05T09:27:37.820Z,19.90
2023-01-05T09:30:05.534Z,21.20
2023-01-05T09:32:32.538Z,19.58
2023-01-05T09:34:59.504Z,26.23
2023-01-05T09:37:26.563Z,19.48
2023-01-05T09:39:53.439Z,21.30
2023-01-05T09:42:23.571Z,20.95
2023-01-05T09:45:00.014Z,19.67
2023-01-05T09:47:32.946Z,21.70
2023-01-05T09:50:00.531Z,23.00
2023-01-05T09:52:30.462Z,20.75
2023-01-05T09:55:04.306Z,20.52
2023-01-05T09:57:31.926Z,27.85
2023-01-05T10:00:03.023Z,20.35
2023-01-05T10:02:37.537Z,19.60
2023-01-05T10:05:06.563Z,21.92
2023-01-05T10:07:45.908Z,22.88
2023-01-05T10:10:32.222Z,18.42
2023-01-05T10:13:04.590Z,19.92
2023-01-05T10:15:37.216Z,21.00
2023-01-05T10:18:12.122Z,19.60
2023-01-05T10:20:51.328Z,21.42
2023-01-05T10:23:24.123Z,16.30
2023-01-05T10:26:09.868Z,18.13
2023-01-05T10:29:13.184Z,23.38
2023-01-05T10:31:56.696Z,13.65
2023-01-05T10:34:31.391Z,16.42
2023-01-05T10:37:33.672Z,16.05
2023-01-05T10:40:19.862Z,12.02
2023-01-05T10:43:15.473Z,15.55
2023-01-05T10:48:34.338Z,14.32
2023-01-05T10:51:02.664Z,16.40
2023-01-05T10:53:30.890Z,15.25
2023-01-05T10:56:00.878Z,11.98
2023-01-05T10:58:30.481Z,15.05
2023-01-05T11:01:07.098Z,14.65
2023-01-05T11:04:23.999Z,17.27
2023-01-05T11:06:32.735Z,16.17
2023-01-05T11:09:26.291Z,19.02
2023-01-05T11:12:03.432Z,20.33
2023-01-05T11:14:37.014Z,18.05
2023-01-05T11:17:07.049Z,22.73
2023-01-05T11:19:42.444Z,15.77
2023-01-05T11:22:35.185Z,17.98
2023-01-05T11:25:31.840Z,22.60
2023-01-05T11:28:06.310Z,20.67
2023-01-05T11:30:33.883Z,19.33
2023-01-05T11:33:01.948Z,20.95
2023-01-05T11:35:36.854Z,22.33
2023-01-05T11:40:34.775Z,18.38
2023-01-05T11:43:10.861Z,18.10
2023-01-05T11:45:41.761Z,20.15
2023-01-05T11:48:09.020Z,16.98
2023-01-05T11:50:49.523Z,17.88
2023-01-05T11:53:34.719Z,19.48
2023-01-05T11:56:21.767Z,18.85
2023-01-05T11:58:55.165Z,25.63
2023-01-05T12:01:54.718Z,21.83
2023-01-05T12:04:31.470Z,19.02
2023-01-05T12:07:01.332Z,21.55
2023-01-05T12:09:42.063Z,17.90
2023-01-05T12:12:26.853Z,26.67
2023-01-05T12:15:14.401Z,17.30
2023-01-05T12:17:59.343Z,20.25
2023-01-05T12:20:38.091Z,26.45
2023-01-05T12:23:23.630Z,22.98
2023-01-05T12:26:04.514Z,22.05
2023-01-05T12:28:41.807Z,24.52
2023-01-05T12:34:27.942Z,19.17
2023-01-05T12:37:11.005Z,19.67
2023-01-05T12:40:05.700Z,20.83
2023-01-05T12:42:47.716Z,19.05
2023-01-05T12:45:31.806Z,18.80
2023-01-05T12:48:16.584Z,17.83
2023-01-05T12:51:02.341Z,23.05
2023-01-05T12:54:01.835Z,19.75
2023-01-05T12:56:34.266Z,18.60
2023-01-05T12:59:17.332Z,19.30
2023-01-05T13:01:59.894Z,24.23
2023-01-05T13:04:48.493Z,21.48
2023-01-05T13:07:54.552Z,19.27
2023-01-05T13:10:27.966Z,16.25
2023-01-05T13:12:59.743Z,15.93
2023-01-05T13:15:54.470Z,18.25
2023-01-05T13:18:24.957Z,18.47
2023-01-05T13:20:58.389Z,21.50
2023-01-05T13:23:44.638Z,19.35
2023-01-05T13:26:16.261Z,18.98
2023-01-05T13:28:46.711Z,20.80
2023-01-05T13:31:41.645Z,19.23
2023-01-05T13:34:17.433Z,23.13
2023-01-05T13:36:54.891Z,23.80
2023-01-05T13:39:43.957Z,19.92
2023-01-05T13:42:23.386Z,20.50
2023-01-05T13:45:27.692Z,23.13
2023-01-05T13:48:13.156Z,25.30
2023-01-05T13:51:00.650Z,20.63
2023-01-05T13:53:30.216Z,24.55
2023-01-05T13:56:14.670Z,21.35
2023-01-05T13:58:46.062Z,22.80
2023-01-05T14:01:19.595Z,21.02
2023-01-05T14:03:55.050Z,18.38
2023-01-05T14:06:27.750Z,26.85
2023-01-05T14:09:05.705Z,20.63
2023-01-05T14:11:32.838Z,20.50
2023-01-05T14:14:04.983Z,22.90
2023-01-05T14:16:35.489Z,23.35
2023-01-05T14:19:25.645Z,22.40
2023-01-05T14:21:59.911Z,19.25
2023-01-05T14:24:28.903Z,26.63
2023-01-05T14:27:16.108Z,22.98
2023-01-05T14:29:48.842Z,23.20
2023-01-05T14:32:40.008Z,21.00
2023-01-05T14:35:12.578Z,22.70
2023-01-05T14:37:53.356Z,22.23
2023-01-05T14:40:22.788Z,40.25
2023-01-05T14:42:50.816Z,32.75
2023-01-05T14:45:26.994Z,29.33
2023-01-05T14:48:09.933Z,32.75
2023-01-05T14:50:40.992Z,33.92
2023-01-05T14:53:33.694Z,33.88
2023-01-05T14:56:00.573Z,37.83
2023-01-05T14:58:40.716Z,28.25
2023-01-05T15:01:16.763Z,30.85
2023-01-05T15:04:15.476Z,30.02
2023-01-05T15:07:00.629Z,29.45
2023-01-05T15:09:36.590Z,35.28
2023-01-05T15:12:40.185Z,25.15
2023-01-05T15:15:43.403Z,36.33
2023-01-05T15:18:37.715Z,29.70
2023-01-05T15:21:22.811Z,37.35
2023-01-05T15:24:22.288Z,40.58
2023-01-05T15:27:00.974Z,46.55
2023-01-05T15:30:03.779Z,41.20
2023-01-05T15:32:42.942Z,43.63
2023-01-05T15:35:16.782Z,56.00
2023-01-05T15:37:47.228Z,46.60
2023-01-05T15:40:23.540Z,48.42
2023-01-05T15:42:54.848Z,44.83
2023-01-05T15:45:50.289Z,44.38
2023-01-05T15:48:40.121Z,42.45
2023-01-05T15:51:07.836Z,48.78
2023-01-05T15:53:41.330Z,52.08
2023-01-05T15:56:27.064Z,53.47
2023-01-05T16:01:21.027Z,51.40
2023-01-05T16:03:48.872Z,58.05
2023-01-05T16:06:18.137Z,71.80
2023-01-05T16:08:47.262Z,60.10
2023-01-05T16:11:28.271Z,65.18
2023-01-05T16:13:58.307Z,55.55
2023-01-05T16:16:51.349Z,50.10
2023-01-05T16:19:37.276Z,50.95
2023-01-05T16:22:32.579Z,63.05
2023-01-05T16:24:59.464Z,59.00
2023-01-05T16:27:27.443Z,50.30
2023-01-05T16:29:54.522Z,46.78
2023-01-05T16:32:39.326Z,54.15
2023-01-05T16:35:29.510Z,61.88
2023-01-05T16:38:27.425Z,63.22
2023-01-05T16:41:03.580Z,66.43
2023-01-05T16:43:39.498Z,62.53
2023-01-05T16:46:24.047Z,56.33
2023-01-05T16:49:01.952Z,52.78
2023-01-05T16:51:31.875Z,58.88
2023-01-05T16:54:22.035Z,67.22
2023-01-05T16:56:58.187Z,57.28
2023-01-05T16:59:50.219Z,65.03
2023-01-05T17:02:35.834Z,61.88
2023-01-05T17:05:03.134Z,74.22
2023-01-05T17:07:30.372Z,73.57
2023-01-05T17:09:57.403Z,60.20
2023-01-05T17:12:24.282Z,56.25
2023-01-05T17:14:51.862Z,44.88
2023-01-05T17:22:18.649Z,45.47
2023-01-05T17:24:45.726Z,47.33
2023-01-05T17:29:40.459Z,50.28
2023-01-05T17:32:11.231Z,48.13
2023-01-05T17:34:39.689Z,50.90
2023-01-05T17:37:07.757Z,57.13
2023-01-05T17:39:34.695Z,51.65
2023-01-05T17:42:23.703Z,52.38
2023-01-05T17:44:52.124Z,59.45
2023-01-05T17:47:19.480Z,52.15
2023-01-05T17:49:46.707Z,45.17
2023-01-05T17:52:14.040Z,45.78
2023-01-05T17:54:41.908Z,55.00
2023-01-05T17:57:12.338Z,42.35
2023-01-05T17:59:39.977Z,39.72
2023-01-05T18:02:07.105Z,51.03
2023-01-05T18:04:34.148Z,48.65
2023-01-05T18:07:01.186Z,62.03
2023-01-05T18:09:28.193Z,55.60
2023-01-05T18:11:55.258Z,43.95
2023-01-05T18:14:22.469Z,57.90
2023-01-05T18:16:49.391Z,46.95
2023-01-05T18:19:16.317Z,53.65
2023-01-05T18:24:15.088Z,50.75
2023-01-05T18:26:42.214Z,44.95
2023-01-05T18:29:09.178Z,55.38
2023-01-05T18:31:40.172Z,48.53
2023-01-05T18:34:09.300Z,54.53
2023-01-05T18:36:36.198Z,58.35
2023-01-05T18:39:03.142Z,45.33
2023-01-05T18:41:30.467Z,58.88
2023-01-05T18:43:57.445Z,51.60
2023-01-05T18:46:24.601Z,62.92
2023-01-05T18:48:51.847Z,58.92
2023-01-05T18:51:18.806Z,49.75
2023-01-05T18:53:45.819Z,58.10
2023-01-05T18:56:14.247Z,59.75
2023-01-05T18:58:41.495Z,61.10
2023-01-05T19:01:17.578Z,51.22
2023-01-05T19:03:44.735Z,51.65
2023-01-05T19:06:15.827Z,47.65
2023-01-05T19:08:43.790Z,47.92
2023-01-05T19:11:22.775Z,42.88
2023-01-05T19:13:50.800Z,47.10
2023-01-05T19:16:20.190Z,56.45
2023-01-05T19:18:53.239Z,64.95
2023-01-05T19:21:20.865Z,56.15
2023-01-05T19:23:48.116Z,60.22
2023-01-05T19:26:15.197Z,54.28
2023-01-05T19:28:45.309Z,43.70
2023-01-05T19:31:14.540Z,50.53
2023-01-05T19:33:42.406Z,36.38
2023-01-05T19:36:15.081Z,33.60
2023-01-05T19:38:43.127Z,33.30
2023-01-05T19:41:18.028Z,25.80
2023-01-05T19:43:48.792Z,21.15
2023-01-05T19:46:17.291Z,21.48
2023-01-05T19:48:45.180Z,17.23
2023-01-05T19:51:15.394Z,14.25
2023-01-05T19:53:43.424Z,11.52
2023-01-05T19:56:13.849Z,14.70
2023-01-05T19:58:42.228Z,10.13
2023-01-05T20:01:12.384Z,10.27
2023-01-05T20:03:40.585Z,13.38
2023-01-05T20:06:20.081Z,12.07
2023-01-05T20:08:52.613Z,14.00
2023-01-05T20:11:36.704Z,12.55
2023-01-05T20:14:14.637Z,13.05
2023-01-05T20:16:43.778Z,10.18
2023-01-05T20:19:11.738Z,11.82
2023-01-05T20:21:38.967Z,6.10
2023-01-05T20:24:13.041Z,11.55
2023-01-05T20:26:42.168Z,6.93
2023-01-05T20:29:10.105Z,11.32
2023-01-05T20:31:40.750Z,11.63
2023-01-05T20:34:11.751Z,8.20
2023-01-05T20:36:38.826Z,9.48
2023-01-05T20:39:08.167Z,13.55
2023-01-05T20:41:38.274Z,13.98
2023-01-05T20:44:05.362Z,18.50
2023-01-05T20:46:36.729Z,17.20
2023-01-05T20:49:04.642Z,21.30
2023-01-05T20:51:31.540Z,18.90
2023-01-05T20:53:59.904Z,24.55
2023-01-05T20:56:29.854Z,20.33
2023-01-05T20:58:56.871Z,21.98
2023-01-05T21:01:23.953Z,22.52
2023-01-05T21:03:53.091Z,30.20
2023-01-05T21:06:20.439Z,22.80
2023-01-05T21:08:49.078Z,26.55
2023-01-05T21:11:22.922Z,24.80
2023-01-05T21:13:51.918Z,17.17
2023-01-05T21:16:31.433Z,18.38
2023-01-05T21:19:01.323Z,14.82
2023-01-05T21:21:29.714Z,13.35
2023-01-05T21:23:57.120Z,13.63
2023-01-05T21:26:24.557Z,14.05
2023-01-05T21:28:53.124Z,15.02
2023-01-05T21:31:23.229Z,15.60
2023-01-05T21:33:51.072Z,10.60
2023-01-05T21:36:21.766Z,11.23
2023-01-05T21:39:03.388Z,13.35
2023-01-05T21:41:51.003Z,12.02
2023-01-05T21:44:20.070Z,10.25
2023-01-05T21:46:48.057Z,9.98
2023-01-05T21:49:15.100Z,11.00
2023-01-05T21:52:00.704Z,9.65
2023-01-05T21:54:46.389Z,11.82
2023-01-05T21:57:13.492Z,7.70
2023-01-05T21:59:41.249Z,7.85
2023-01-05T22:02:08.487Z,8.48
2023-01-05T22:04:35.743Z,6.43
2023-01-05T22:07:05.349Z,8.93
2023-01-05T22:09:32.392Z,10.07
2023-01-05T22:11:59.504Z,12.70
2023-01-05T22:14:26.335Z,8.38
2023-01-05T22:16:53.190Z,8.20
2023-01-05T22:19:20.099Z,18.65
2023-01-05T22:21:47.058Z,8.02
2023-01-05T22:24:14.329Z,7.32
2023-01-05T22:26:41.359Z,11.93
2023-01-05T22:29:08.286Z,13.32
2023-01-05T22:31:36.354Z,6.53
2023-01-05T22:34:04.045Z,9.38
2023-01-05T22:36:31.944Z,7.57
2023-01-05T22:38:59.069Z,7.05
2023-01-05T22:41:30.090Z,12.68
2023-01-05T22:43:57.821Z,5.40
2023-01-05T22:46:29.708Z,13.75
2023-01-05T22:48:57.588Z,8.60
2023-01-05T22:51:36.046Z,8.63
2023-01-05T22:54:04.205Z,6.72
2023-01-05T22:56:32.916Z,5.20
2023-01-05T22:59:00.399Z,5.43
2023-01-05T23:01:36.438Z,10.35
2023-01-05T23:04:05.576Z,5.38
2023-01-05T23:06:32.989Z,4.03
2023-01-05T23:09:00.960Z,21.38
2023-01-05T23:11:34.732Z,10.43
2023-01-05T23:14:03.637Z,8.23
2023-01-05T23:16:32.464Z,53.63
2023-01-05T23:18:59.789Z,9.85
2023-01-05T23:21:27.522Z,5.53
2023-01-05T23:23:56.152Z,6.43
2023-01-05T23:26:24.263Z,6.47
2023-01-05T23:28:51.429Z,17.00
2023-01-05T23:31:19.373Z,7.63
2023-01-05T23:33:47.793Z,9.50
2023-01-05T23:36:16.897Z,11.40
2023-01-05T23:38:44.227Z,9.90
2023-01-05T23:41:13.055Z,11.95
2023-01-05T23:43:41.881Z,5.13
2023-01-05T23:46:11.447Z,11.82
2023-01-05T23:48:39.371Z,5.13
2023-01-05T23:51:11.446Z,8.07
2023-01-05T23:53:38.463Z,13.45
2023-01-05T23:56:18.133Z,24.70
2023-01-05T23:58:45.227Z,12.60
